Terminal Aerodrome Forecast
Issued by NWS Sioux Falls, SD

Home | Current Version | Previous Version | Text Only | Print | Product List | Glossary Off
Versions: 1 2 3 4 5 6 7 8 9 10 11 12 13

000
FTUS43 KFSD 080500
TAFHON
TAF
KHON 080520Z 0806/0906 31008KT P6SM SKC
     FM081500 33015G22KT P6SM SCT040
     FM081800 33016G23KT P6SM BKN045
     FM090030 VRB04KT P6SM SKC=

USA.gov is the U.S. government's official web portal to all federal, state and local government web resources and services.